Terminal Aerodrome Forecast
Issued by NWS

Home | Current Version | Previous Version | Text Only | Print | Product List | Glossary On
Versions: 1 2 3 4 5 6 7 8 9 10 11 12 13 14 15 16 17 18 19 20 21 22 23 24
175
FTAK31 PAFA 210540
TAFAOR
TAF
PAOR 210540Z 2106/2206 VRB03KT P6SM VCSH BKN050 OVC080
     FM211200 VRB03KT P6SM SCT050 OVC100
     FM220000 12005KT P6SM -SHRA BKN050 OVC080=

USA.gov is the U.S. government's official web portal to all federal, state and local government web resources and services.